sensor_id;sensor_type;location;lat;lon;timestamp;P1;durP1;ratioP1;P2;durP2;ratioP2
13991;SDS011;7070;53.586;9.692;2023-07-31T00:01:47;5.30;;;1.43;;
13991;SDS011;7070;53.586;9.692;2023-07-31T00:04:14;5.63;;;1.97;;
13991;SDS011;7070;53.586;9.692;2023-07-31T00:06:41;3.13;;;1.37;;
13991;SDS011;7070;53.586;9.692;2023-07-31T00:09:07;5.17;;;1.50;;
13991;SDS011;7070;53.586;9.692;2023-07-31T00:11:36;7.23;;;1.60;;
13991;SDS011;7070;53.586;9.692;2023-07-31T00:14:02;3.97;;;1.40;;
13991;SDS011;7070;53.586;9.692;2023-07-31T00:16:29;2.73;;;1.70;;
13991;SDS011;7070;53.586;9.692;2023-07-31T00:18:56;2.60;;;1.33;;
13991;SDS011;7070;53.586;9.692;2023-07-31T00:21:23;2.37;;;1.47;;
13991;SDS011;7070;53.586;9.692;2023-07-31T00:23:50;5.33;;;2.07;;
13991;SDS011;7070;53.586;9.692;2023-07-31T00:26:17;2.20;;;1.20;;
13991;SDS011;7070;53.586;9.692;2023-07-31T00:28:45;2.67;;;1.30;;
13991;SDS011;7070;53.586;9.692;2023-07-31T00:31:12;4.03;;;1.40;;
13991;SDS011;7070;53.586;9.692;2023-07-31T00:33:39;4.67;;;1.50;;
13991;SDS011;7070;53.586;9.692;2023-07-31T00:36:06;4.37;;;1.63;;
13991;SDS011;7070;53.586;9.692;2023-07-31T00:38:33;2.47;;;1.30;;
13991;SDS011;7070;53.586;9.692;2023-07-31T00:40:59;4.20;;;1.37;;
13991;SDS011;7070;53.586;9.692;2023-07-31T00:43:26;6.77;;;1.30;;
13991;SDS011;7070;53.586;9.692;2023-07-31T00:45:54;3.77;;;1.30;;
13991;SDS011;7070;53.586;9.692;2023-07-31T00:48:21;2.00;;;1.20;;
13991;SDS011;7070;53.586;9.692;2023-07-31T00:50:49;4.67;;;1.37;;
13991;SDS011;7070;53.586;9.692;2023-07-31T00:53:16;4.77;;;1.40;;
13991;SDS011;7070;53.586;9.692;2023-07-31T00:55:44;6.80;;;1.90;;
13991;SDS011;7070;53.586;9.692;2023-07-31T00:58:11;1.73;;;1.40;;
13991;SDS011;7070;53.586;9.692;2023-07-31T01:00:38;4.03;;;1.60;;
13991;SDS011;7070;53.586;9.692;2023-07-31T01:03:06;4.37;;;1.30;;
13991;SDS011;7070;53.586;9.692;2023-07-31T01:05:34;1.63;;;1.40;;
13991;SDS011;7070;53.586;9.692;2023-07-31T01:08:12;4.57;;;1.33;;
13991;SDS011;7070;53.586;9.692;2023-07-31T01:10:51;7.17;;;1.23;;
13991;SDS011;7070;53.586;9.692;2023-07-31T01:13:22;1.87;;;1.63;;
13991;SDS011;7070;53.586;9.692;2023-07-31T01:15:50;5.70;;;1.60;;
13991;SDS011;7070;53.586;9.692;2023-07-31T01:18:18;2.77;;;1.30;;
13991;SDS011;7070;53.586;9.692;2023-07-31T01:20:46;3.00;;;1.27;;
13991;SDS011;7070;53.586;9.692;2023-07-31T01:23:23;6.20;;;1.60;;
13991;SDS011;7070;53.586;9.692;2023-07-31T01:26:05;2.90;;;1.70;;
13991;SDS011;7070;53.586;9.692;2023-07-31T01:28:44;6.63;;;2.00;;
13991;SDS011;7070;53.586;9.692;2023-07-31T01:31:23;3.23;;;1.50;;
13991;SDS011;7070;53.586;9.692;2023-07-31T01:33:52;6.93;;;1.33;;
13991;SDS011;7070;53.586;9.692;2023-07-31T01:36:20;3.37;;;1.80;;
13991;SDS011;7070;53.586;9.692;2023-07-31T01:38:48;11.83;;;1.70;;
13991;SDS011;7070;53.586;9.692;2023-07-31T01:41:17;1.97;;;1.27;;
13991;SDS011;7070;53.586;9.692;2023-07-31T01:43:44;2.57;;;1.33;;
13991;SDS011;7070;53.586;9.692;2023-07-31T01:46:11;4.83;;;1.50;;
13991;SDS011;7070;53.586;9.692;2023-07-31T01:48:38;2.50;;;1.40;;
13991;SDS011;7070;53.586;9.692;2023-07-31T01:51:05;3.10;;;1.67;;
13991;SDS011;7070;53.586;9.692;2023-07-31T01:53:31;2.57;;;1.70;;
13991;SDS011;7070;53.586;9.692;2023-07-31T01:55:58;4.10;;;1.40;;
13991;SDS011;7070;53.586;9.692;2023-07-31T01:58:26;3.67;;;1.90;;
13991;SDS011;7070;53.586;9.692;2023-07-31T02:00:53;4.07;;;1.67;;
13991;SDS011;7070;53.586;9.692;2023-07-31T02:03:20;2.97;;;1.60;;
13991;SDS011;7070;53.586;9.692;2023-07-31T02:05:48;2.80;;;1.67;;
13991;SDS011;7070;53.586;9.692;2023-07-31T02:08:15;6.43;;;2.37;;
13991;SDS011;7070;53.586;9.692;2023-07-31T02:10:42;6.70;;;1.87;;
13991;SDS011;7070;53.586;9.692;2023-07-31T02:13:09;2.40;;;1.57;;
13991;SDS011;7070;53.586;9.692;2023-07-31T02:15:37;6.13;;;2.07;;
13991;SDS011;7070;53.586;9.692;2023-07-31T02:18:04;5.90;;;2.10;;
13991;SDS011;7070;53.586;9.692;2023-07-31T02:20:33;2.83;;;1.77;;
13991;SDS011;7070;53.586;9.692;2023-07-31T02:23:00;4.43;;;1.77;;
13991;SDS011;7070;53.586;9.692;2023-07-31T02:25:27;2.13;;;1.63;;
13991;SDS011;7070;53.586;9.692;2023-07-31T02:27:54;7.50;;;1.80;;
13991;SDS011;7070;53.586;9.692;2023-07-31T02:30:21;4.43;;;1.77;;
13991;SDS011;7070;53.586;9.692;2023-07-31T02:32:49;4.07;;;1.63;;
13991;SDS011;7070;53.586;9.692;2023-07-31T02:35:16;5.07;;;1.93;;
13991;SDS011;7070;53.586;9.692;2023-07-31T02:37:43;3.37;;;2.00;;
13991;SDS011;7070;53.586;9.692;2023-07-31T02:40:10;2.17;;;1.57;;
13991;SDS011;7070;53.586;9.692;2023-07-31T02:42:38;3.50;;;1.70;;
13991;SDS011;7070;53.586;9.692;2023-07-31T02:45:05;3.83;;;1.80;;
13991;SDS011;7070;53.586;9.692;2023-07-31T02:47:33;2.33;;;1.70;;
13991;SDS011;7070;53.586;9.692;2023-07-31T02:50:01;2.97;;;1.77;;
13991;SDS011;7070;53.586;9.692;2023-07-31T02:52:28;3.60;;;1.60;;
13991;SDS011;7070;53.586;9.692;2023-07-31T02:54:55;6.90;;;2.07;;
13991;SDS011;7070;53.586;9.692;2023-07-31T02:57:22;3.17;;;1.90;;
13991;SDS011;7070;53.586;9.692;2023-07-31T02:59:48;3.97;;;2.20;;
13991;SDS011;7070;53.586;9.692;2023-07-31T03:02:15;2.83;;;1.97;;
13991;SDS011;7070;53.586;9.692;2023-07-31T03:04:42;3.93;;;2.30;;
13991;SDS011;7070;53.586;9.692;2023-07-31T03:07:10;4.73;;;1.90;;
13991;SDS011;7070;53.586;9.692;2023-07-31T03:09:37;4.47;;;2.17;;
13991;SDS011;7070;53.586;9.692;2023-07-31T03:12:04;2.40;;;1.60;;
13991;SDS011;7070;53.586;9.692;2023-07-31T03:14:31;6.37;;;2.07;;
13991;SDS011;7070;53.586;9.692;2023-07-31T03:16:59;5.63;;;1.70;;
13991;SDS011;7070;53.586;9.692;2023-07-31T03:19:25;3.97;;;1.60;;
13991;SDS011;7070;53.586;9.692;2023-07-31T03:21:52;2.73;;;1.80;;
13991;SDS011;7070;53.586;9.692;2023-07-31T03:24:21;3.63;;;2.23;;
13991;SDS011;7070;53.586;9.692;2023-07-31T03:26:47;2.93;;;1.57;;
13991;SDS011;7070;53.586;9.692;2023-07-31T03:29:14;2.07;;;1.50;;
13991;SDS011;7070;53.586;9.692;2023-07-31T03:31:41;2.10;;;1.70;;
13991;SDS011;7070;53.586;9.692;2023-07-31T03:34:08;5.93;;;1.90;;
13991;SDS011;7070;53.586;9.692;2023-07-31T03:36:35;3.10;;;1.90;;
13991;SDS011;7070;53.586;9.692;2023-07-31T03:39:02;2.20;;;1.60;;
13991;SDS011;7070;53.586;9.692;2023-07-31T03:41:30;3.77;;;1.93;;
13991;SDS011;7070;53.586;9.692;2023-07-31T03:43:57;4.27;;;2.47;;
13991;SDS011;7070;53.586;9.692;2023-07-31T03:46:24;4.47;;;1.60;;
13991;SDS011;7070;53.586;9.692;2023-07-31T03:48:51;6.07;;;2.03;;
13991;SDS011;7070;53.586;9.692;2023-07-31T03:51:17;5.77;;;1.83;;
13991;SDS011;7070;53.586;9.692;2023-07-31T03:53:44;2.97;;;1.90;;
13991;SDS011;7070;53.586;9.692;2023-07-31T03:56:12;3.10;;;1.80;;
13991;SDS011;7070;53.586;9.692;2023-07-31T03:58:41;2.93;;;1.67;;
13991;SDS011;7070;53.586;9.692;2023-07-31T04:01:11;2.77;;;1.53;;
13991;SDS011;7070;53.586;9.692;2023-07-31T04:03:38;5.13;;;2.30;;
13991;SDS011;7070;53.586;9.692;2023-07-31T04:06:04;3.03;;;1.67;;
13991;SDS011;7070;53.586;9.692;2023-07-31T04:08:33;3.83;;;1.60;;
13991;SDS011;7070;53.586;9.692;2023-07-31T04:10:59;3.77;;;1.67;;
13991;SDS011;7070;53.586;9.692;2023-07-31T04:13:26;2.70;;;1.60;;
13991;SDS011;7070;53.586;9.692;2023-07-31T04:15:56;2.87;;;1.83;;
13991;SDS011;7070;53.586;9.692;2023-07-31T04:18:24;3.40;;;1.80;;
13991;SDS011;7070;53.586;9.692;2023-07-31T04:20:51;2.77;;;1.87;;
13991;SDS011;7070;53.586;9.692;2023-07-31T04:23:18;3.50;;;1.90;;
13991;SDS011;7070;53.586;9.692;2023-07-31T04:25:45;2.60;;;1.90;;
13991;SDS011;7070;53.586;9.692;2023-07-31T04:28:11;4.80;;;2.47;;
13991;SDS011;7070;53.586;9.692;2023-07-31T04:30:38;3.53;;;1.97;;
13991;SDS011;7070;53.586;9.692;2023-07-31T04:33:07;4.70;;;2.10;;
13991;SDS011;7070;53.586;9.692;2023-07-31T04:35:33;2.43;;;2.00;;
13991;SDS011;7070;53.586;9.692;2023-07-31T04:38:00;3.10;;;1.83;;
13991;SDS011;7070;53.586;9.692;2023-07-31T04:40:28;3.10;;;1.93;;
13991;SDS011;7070;53.586;9.692;2023-07-31T04:42:54;3.03;;;2.10;;
13991;SDS011;7070;53.586;9.692;2023-07-31T04:45:21;2.57;;;1.90;;
13991;SDS011;7070;53.586;9.692;2023-07-31T04:47:48;3.20;;;1.90;;
13991;SDS011;7070;53.586;9.692;2023-07-31T04:50:16;1.97;;;1.70;;
13991;SDS011;7070;53.586;9.692;2023-07-31T04:52:43;4.60;;;2.30;;
13991;SDS011;7070;53.586;9.692;2023-07-31T04:55:10;2.33;;;1.70;;
13991;SDS011;7070;53.586;9.692;2023-07-31T04:57:37;3.47;;;1.90;;
13991;SDS011;7070;53.586;9.692;2023-07-31T05:00:04;2.20;;;1.53;;
13991;SDS011;7070;53.586;9.692;2023-07-31T05:02:32;2.53;;;1.70;;
13991;SDS011;7070;53.586;9.692;2023-07-31T05:04:59;1.80;;;1.33;;
13991;SDS011;7070;53.586;9.692;2023-07-31T05:07:27;3.57;;;1.80;;
13991;SDS011;7070;53.586;9.692;2023-07-31T05:09:54;1.67;;;1.17;;
13991;SDS011;7070;53.586;9.692;2023-07-31T05:12:23;2.17;;;1.60;;
13991;SDS011;7070;53.586;9.692;2023-07-31T05:14:50;2.00;;;1.37;;
13991;SDS011;7070;53.586;9.692;2023-07-31T05:17:17;3.07;;;1.83;;
13991;SDS011;7070;53.586;9.692;2023-07-31T05:19:44;3.30;;;1.73;;
13991;SDS011;7070;53.586;9.692;2023-07-31T05:22:11;1.40;;;1.23;;
13991;SDS011;7070;53.586;9.692;2023-07-31T05:24:39;2.83;;;1.50;;
13991;SDS011;7070;53.586;9.692;2023-07-31T05:27:06;1.63;;;1.40;;
13991;SDS011;7070;53.586;9.692;2023-07-31T05:29:34;2.57;;;1.57;;
13991;SDS011;7070;53.586;9.692;2023-07-31T05:32:01;1.43;;;1.30;;
13991;SDS011;7070;53.586;9.692;2023-07-31T05:34:28;2.63;;;1.33;;
13991;SDS011;7070;53.586;9.692;2023-07-31T05:36:55;1.77;;;1.20;;
13991;SDS011;7070;53.586;9.692;2023-07-31T05:39:22;3.07;;;1.50;;
13991;SDS011;7070;53.586;9.692;2023-07-31T05:41:50;1.70;;;1.17;;
13991;SDS011;7070;53.586;9.692;2023-07-31T05:44:17;2.73;;;1.83;;
13991;SDS011;7070;53.586;9.692;2023-07-31T05:46:44;2.13;;;1.40;;
13991;SDS011;7070;53.586;9.692;2023-07-31T05:49:11;1.77;;;1.40;;
13991;SDS011;7070;53.586;9.692;2023-07-31T05:51:37;1.53;;;1.13;;
13991;SDS011;7070;53.586;9.692;2023-07-31T05:54:04;2.30;;;1.57;;
13991;SDS011;7070;53.586;9.692;2023-07-31T05:56:31;2.20;;;1.50;;
13991;SDS011;7070;53.586;9.692;2023-07-31T05:59:00;1.60;;;1.30;;
13991;SDS011;7070;53.586;9.692;2023-07-31T06:01:27;2.10;;;1.27;;
13991;SDS011;7070;53.586;9.692;2023-07-31T06:03:57;3.57;;;1.90;;
13991;SDS011;7070;53.586;9.692;2023-07-31T06:06:24;2.43;;;1.40;;
13991;SDS011;7070;53.586;9.692;2023-07-31T06:08:50;1.90;;;1.20;;
13991;SDS011;7070;53.586;9.692;2023-07-31T06:11:18;1.40;;;1.20;;
13991;SDS011;7070;53.586;9.692;2023-07-31T06:13:52;1.50;;;1.20;;
13991;SDS011;7070;53.586;9.692;2023-07-31T06:16:20;1.53;;;1.00;;
13991;SDS011;7070;53.586;9.692;2023-07-31T06:18:47;2.17;;;1.50;;
13991;SDS011;7070;53.586;9.692;2023-07-31T06:21:14;8.47;;;1.30;;
13991;SDS011;7070;53.586;9.692;2023-07-31T06:23:41;3.60;;;1.23;;
13991;SDS011;7070;53.586;9.692;2023-07-31T06:26:08;1.63;;;0.90;;
13991;SDS011;7070;53.586;9.692;2023-07-31T06:28:35;1.63;;;1.03;;
13991;SDS011;7070;53.586;9.692;2023-07-31T06:31:02;1.60;;;1.10;;
13991;SDS011;7070;53.586;9.692;2023-07-31T06:33:30;2.07;;;1.13;;
13991;SDS011;7070;53.586;9.692;2023-07-31T06:35:57;2.10;;;1.10;;
13991;SDS011;7070;53.586;9.692;2023-07-31T06:38:24;1.10;;;1.00;;
13991;SDS011;7070;53.586;9.692;2023-07-31T06:40:52;1.73;;;1.00;;
13991;SDS011;7070;53.586;9.692;2023-07-31T06:43:19;2.00;;;1.50;;
13991;SDS011;7070;53.586;9.692;2023-07-31T06:45:46;3.60;;;1.27;;
13991;SDS011;7070;53.586;9.692;2023-07-31T06:48:15;2.30;;;1.43;;
13991;SDS011;7070;53.586;9.692;2023-07-31T06:50:43;3.37;;;1.50;;
13991;SDS011;7070;53.586;9.692;2023-07-31T06:53:10;2.50;;;1.33;;
13991;SDS011;7070;53.586;9.692;2023-07-31T06:55:37;1.70;;;1.33;;
13991;SDS011;7070;53.586;9.692;2023-07-31T06:58:03;1.77;;;1.17;;
13991;SDS011;7070;53.586;9.692;2023-07-31T07:00:30;1.60;;;1.27;;
13991;SDS011;7070;53.586;9.692;2023-07-31T07:03:00;1.50;;;1.20;;
13991;SDS011;7070;53.586;9.692;2023-07-31T07:05:28;1.97;;;1.43;;
13991;SDS011;7070;53.586;9.692;2023-07-31T07:07:57;2.97;;;1.27;;
13991;SDS011;7070;53.586;9.692;2023-07-31T07:10:24;2.03;;;1.43;;
13991;SDS011;7070;53.586;9.692;2023-07-31T07:12:51;1.60;;;1.33;;
13991;SDS011;7070;53.586;9.692;2023-07-31T07:15:17;2.03;;;1.27;;
13991;SDS011;7070;53.586;9.692;2023-07-31T07:17:44;2.80;;;1.30;;
13991;SDS011;7070;53.586;9.692;2023-07-31T07:20:11;1.63;;;1.50;;
13991;SDS011;7070;53.586;9.692;2023-07-31T07:22:38;2.03;;;1.60;;
13991;SDS011;7070;53.586;9.692;2023-07-31T07:25:09;2.10;;;1.47;;
13991;SDS011;7070;53.586;9.692;2023-07-31T07:27:36;1.90;;;1.40;;
13991;SDS011;7070;53.586;9.692;2023-07-31T07:30:03;1.43;;;1.13;;
13991;SDS011;7070;53.586;9.692;2023-07-31T07:32:31;1.73;;;1.30;;
13991;SDS011;7070;53.586;9.692;2023-07-31T07:34:57;1.60;;;1.33;;
13991;SDS011;7070;53.586;9.692;2023-07-31T07:37:24;1.50;;;1.33;;
13991;SDS011;7070;53.586;9.692;2023-07-31T07:39:51;2.20;;;1.33;;
13991;SDS011;7070;53.586;9.692;2023-07-31T07:42:19;2.43;;;1.73;;
13991;SDS011;7070;53.586;9.692;2023-07-31T07:44:46;2.40;;;1.43;;
13991;SDS011;7070;53.586;9.692;2023-07-31T07:47:13;2.00;;;1.33;;
13991;SDS011;7070;53.586;9.692;2023-07-31T07:49:40;2.50;;;1.40;;
13991;SDS011;7070;53.586;9.692;2023-07-31T07:52:07;2.43;;;1.53;;
13991;SDS011;7070;53.586;9.692;2023-07-31T07:54:33;1.87;;;1.50;;
13991;SDS011;7070;53.586;9.692;2023-07-31T07:57:00;2.10;;;1.53;;
13991;SDS011;7070;53.586;9.692;2023-07-31T07:59:28;1.47;;;1.17;;
13991;SDS011;7070;53.586;9.692;2023-07-31T08:01:55;1.90;;;1.20;;
13991;SDS011;7070;53.586;9.692;2023-07-31T08:04:22;1.47;;;1.30;;
13991;SDS011;7070;53.586;9.692;2023-07-31T08:06:49;2.00;;;1.03;;
13991;SDS011;7070;53.586;9.692;2023-07-31T08:09:16;1.53;;;1.07;;
13991;SDS011;7070;53.586;9.692;2023-07-31T08:11:43;1.97;;;0.97;;
13991;SDS011;7070;53.586;9.692;2023-07-31T08:14:09;0.97;;;0.83;;
13991;SDS011;7070;53.586;9.692;2023-07-31T08:16:38;1.93;;;1.10;;
13991;SDS011;7070;53.586;9.692;2023-07-31T08:19:05;2.13;;;0.90;;
13991;SDS011;7070;53.586;9.692;2023-07-31T08:21:32;1.00;;;0.77;;
13991;SDS011;7070;53.586;9.692;2023-07-31T08:23:58;1.10;;;0.83;;
13991;SDS011;7070;53.586;9.692;2023-07-31T08:26:25;1.37;;;0.90;;
13991;SDS011;7070;53.586;9.692;2023-07-31T08:28:52;1.40;;;1.00;;
13991;SDS011;7070;53.586;9.692;2023-07-31T08:31:19;1.20;;;1.03;;
13991;SDS011;7070;53.586;9.692;2023-07-31T08:33:47;2.53;;;0.90;;
13991;SDS011;7070;53.586;9.692;2023-07-31T08:36:14;0.70;;;0.70;;
13991;SDS011;7070;53.586;9.692;2023-07-31T08:38:41;3.13;;;0.93;;
13991;SDS011;7070;53.586;9.692;2023-07-31T08:41:08;1.07;;;0.87;;
13991;SDS011;7070;53.586;9.692;2023-07-31T08:43:35;0.70;;;0.70;;
13991;SDS011;7070;53.586;9.692;2023-07-31T08:46:04;0.97;;;0.70;;
13991;SDS011;7070;53.586;9.692;2023-07-31T08:48:31;1.50;;;0.97;;
13991;SDS011;7070;53.586;9.692;2023-07-31T08:51:00;0.67;;;0.60;;
13991;SDS011;7070;53.586;9.692;2023-07-31T08:53:26;1.43;;;0.80;;
13991;SDS011;7070;53.586;9.692;2023-07-31T08:55:53;0.77;;;0.70;;
13991;SDS011;7070;53.586;9.692;2023-07-31T08:58:22;0.97;;;0.67;;
13991;SDS011;7070;53.586;9.692;2023-07-31T09:00:51;0.70;;;0.70;;
13991;SDS011;7070;53.586;9.692;2023-07-31T09:03:19;0.70;;;0.67;;
13991;SDS011;7070;53.586;9.692;2023-07-31T09:05:51;1.60;;;1.20;;
13991;SDS011;7070;53.586;9.692;2023-07-31T09:08:19;1.90;;;0.63;;
13991;SDS011;7070;53.586;9.692;2023-07-31T09:10:48;0.80;;;0.60;;
13991;SDS011;7070;53.586;9.692;2023-07-31T09:13:16;0.97;;;0.70;;
13991;SDS011;7070;53.586;9.692;2023-07-31T09:15:43;0.67;;;0.60;;
13991;SDS011;7070;53.586;9.692;2023-07-31T09:18:11;1.33;;;0.73;;
13991;SDS011;7070;53.586;9.692;2023-07-31T09:20:39;0.67;;;0.60;;
13991;SDS011;7070;53.586;9.692;2023-07-31T09:23:07;1.33;;;0.80;;
13991;SDS011;7070;53.586;9.692;2023-07-31T09:25:36;0.93;;;0.73;;
13991;SDS011;7070;53.586;9.692;2023-07-31T09:28:04;0.87;;;0.73;;
13991;SDS011;7070;53.586;9.692;2023-07-31T09:30:38;0.77;;;0.63;;
13991;SDS011;7070;53.586;9.692;2023-07-31T09:33:11;1.40;;;0.87;;
13991;SDS011;7070;53.586;9.692;2023-07-31T09:35:38;1.13;;;0.70;;
13991;SDS011;7070;53.586;9.692;2023-07-31T09:38:08;1.90;;;0.60;;
13991;SDS011;7070;53.586;9.692;2023-07-31T09:40:38;1.33;;;1.07;;
13991;SDS011;7070;53.586;9.692;2023-07-31T09:43:12;0.67;;;0.63;;
13991;SDS011;7070;53.586;9.692;2023-07-31T09:45:54;0.90;;;0.63;;
13991;SDS011;7070;53.586;9.692;2023-07-31T09:48:23;0.90;;;0.60;;
13991;SDS011;7070;53.586;9.692;2023-07-31T09:50:52;0.97;;;0.70;;
13991;SDS011;7070;53.586;9.692;2023-07-31T09:53:20;0.80;;;0.60;;
13991;SDS011;7070;53.586;9.692;2023-07-31T09:55:56;0.97;;;0.77;;
13991;SDS011;7070;53.586;9.692;2023-07-31T09:58:25;1.30;;;0.70;;
13991;SDS011;7070;53.586;9.692;2023-07-31T10:00:57;1.47;;;0.87;;
13991;SDS011;7070;53.586;9.692;2023-07-31T10:03:25;1.00;;;0.70;;
13991;SDS011;7070;53.586;9.692;2023-07-31T10:05:53;0.50;;;0.50;;
13991;SDS011;7070;53.586;9.692;2023-07-31T10:08:23;1.83;;;0.90;;
13991;SDS011;7070;53.586;9.692;2023-07-31T10:10:57;0.93;;;0.60;;
13991;SDS011;7070;53.586;9.692;2023-07-31T10:13:25;1.10;;;0.60;;
13991;SDS011;7070;53.586;9.692;2023-07-31T10:15:54;1.03;;;0.60;;
13991;SDS011;7070;53.586;9.692;2023-07-31T10:18:25;2.00;;;0.80;;
13991;SDS011;7070;53.586;9.692;2023-07-31T10:20:52;0.50;;;0.50;;
13991;SDS011;7070;53.586;9.692;2023-07-31T10:23:21;1.27;;;0.73;;
13991;SDS011;7070;53.586;9.692;2023-07-31T10:25:49;1.77;;;0.83;;
13991;SDS011;7070;53.586;9.692;2023-07-31T10:28:20;0.53;;;0.50;;
13991;SDS011;7070;53.586;9.692;2023-07-31T10:30:47;0.80;;;0.70;;
13991;SDS011;7070;53.586;9.692;2023-07-31T10:33:15;0.67;;;0.50;;
13991;SDS011;7070;53.586;9.692;2023-07-31T10:35:44;0.63;;;0.57;;
13991;SDS011;7070;53.586;9.692;2023-07-31T10:38:13;0.90;;;0.63;;
13991;SDS011;7070;53.586;9.692;2023-07-31T10:40:40;0.93;;;0.70;;
13991;SDS011;7070;53.586;9.692;2023-07-31T10:43:07;2.73;;;0.70;;
13991;SDS011;7070;53.586;9.692;2023-07-31T10:45:38;1.33;;;0.43;;
13991;SDS011;7070;53.586;9.692;2023-07-31T10:48:12;1.10;;;0.60;;
13991;SDS011;7070;53.586;9.692;2023-07-31T10:50:46;0.40;;;0.40;;
13991;SDS011;7070;53.586;9.692;2023-07-31T10:53:22;0.80;;;0.80;;
13991;SDS011;7070;53.586;9.692;2023-07-31T10:55:50;0.50;;;0.50;;
13991;SDS011;7070;53.586;9.692;2023-07-31T10:58:18;0.77;;;0.70;;
13991;SDS011;7070;53.586;9.692;2023-07-31T11:00:47;0.33;;;0.33;;
13991;SDS011;7070;53.586;9.692;2023-07-31T11:03:15;0.63;;;0.53;;
13991;SDS011;7070;53.586;9.692;2023-07-31T11:05:49;0.83;;;0.67;;
13991;SDS011;7070;53.586;9.692;2023-07-31T11:08:19;0.97;;;0.60;;
13991;SDS011;7070;53.586;9.692;2023-07-31T11:10:48;0.60;;;0.60;;
13991;SDS011;7070;53.586;9.692;2023-07-31T11:13:17;0.50;;;0.50;;
13991;SDS011;7070;53.586;9.692;2023-07-31T11:15:44;1.03;;;0.60;;
13991;SDS011;7070;53.586;9.692;2023-07-31T11:18:12;1.10;;;0.60;;
13991;SDS011;7070;53.586;9.692;2023-07-31T11:20:40;0.77;;;0.77;;
13991;SDS011;7070;53.586;9.692;2023-07-31T11:23:08;0.87;;;0.60;;
13991;SDS011;7070;53.586;9.692;2023-07-31T11:25:36;0.60;;;0.60;;
13991;SDS011;7070;53.586;9.692;2023-07-31T11:28:05;0.53;;;0.40;;
13991;SDS011;7070;53.586;9.692;2023-07-31T11:30:33;0.60;;;0.60;;
13991;SDS011;7070;53.586;9.692;2023-07-31T11:33:01;0.60;;;0.60;;
13991;SDS011;7070;53.586;9.692;2023-07-31T11:35:31;1.20;;;0.50;;
13991;SDS011;7070;53.586;9.692;2023-07-31T11:37:58;0.40;;;0.40;;
13991;SDS011;7070;53.586;9.692;2023-07-31T11:40:26;1.80;;;0.63;;
13991;SDS011;7070;53.586;9.692;2023-07-31T11:42:55;1.03;;;0.70;;
13991;SDS011;7070;53.586;9.692;2023-07-31T11:45:24;0.60;;;0.60;;
13991;SDS011;7070;53.586;9.692;2023-07-31T11:47:53;0.47;;;0.47;;
13991;SDS011;7070;53.586;9.692;2023-07-31T11:50:21;0.50;;;0.50;;
13991;SDS011;7070;53.586;9.692;2023-07-31T11:52:51;0.50;;;0.50;;
13991;SDS011;7070;53.586;9.692;2023-07-31T11:55:21;0.70;;;0.70;;
13991;SDS011;7070;53.586;9.692;2023-07-31T11:57:49;0.57;;;0.50;;
13991;SDS011;7070;53.586;9.692;2023-07-31T12:00:17;0.40;;;0.40;;
13991;SDS011;7070;53.586;9.692;2023-07-31T12:02:44;0.77;;;0.60;;
13991;SDS011;7070;53.586;9.692;2023-07-31T12:05:12;0.40;;;0.40;;
13991;SDS011;7070;53.586;9.692;2023-07-31T12:07:43;0.57;;;0.57;;
13991;SDS011;7070;53.586;9.692;2023-07-31T12:10:24;1.07;;;0.77;;
13991;SDS011;7070;53.586;9.692;2023-07-31T12:12:56;0.50;;;0.50;;
13991;SDS011;7070;53.586;9.692;2023-07-31T12:15:34;0.60;;;0.50;;
13991;SDS011;7070;53.586;9.692;2023-07-31T12:18:06;0.40;;;0.40;;
13991;SDS011;7070;53.586;9.692;2023-07-31T12:20:34;0.60;;;0.60;;
13991;SDS011;7070;53.586;9.692;2023-07-31T12:23:05;0.47;;;0.47;;
13991;SDS011;7070;53.586;9.692;2023-07-31T12:25:34;0.77;;;0.73;;
13991;SDS011;7070;53.586;9.692;2023-07-31T12:28:04;0.90;;;0.83;;
13991;SDS011;7070;53.586;9.692;2023-07-31T12:30:36;0.30;;;0.30;;
13991;SDS011;7070;53.586;9.692;2023-07-31T12:33:05;0.50;;;0.50;;
13991;SDS011;7070;53.586;9.692;2023-07-31T12:35:40;1.17;;;0.47;;
13991;SDS011;7070;53.586;9.692;2023-07-31T12:38:09;0.87;;;0.57;;
13991;SDS011;7070;53.586;9.692;2023-07-31T12:40:38;0.83;;;0.83;;
13991;SDS011;7070;53.586;9.692;2023-07-31T12:43:05;0.60;;;0.40;;
13991;SDS011;7070;53.586;9.692;2023-07-31T12:45:32;1.00;;;0.70;;
13991;SDS011;7070;53.586;9.692;2023-07-31T12:48:00;0.47;;;0.47;;
13991;SDS011;7070;53.586;9.692;2023-07-31T12:50:27;0.30;;;0.30;;
13991;SDS011;7070;53.586;9.692;2023-07-31T12:52:54;0.40;;;0.40;;
13991;SDS011;7070;53.586;9.692;2023-07-31T12:55:21;0.50;;;0.50;;
13991;SDS011;7070;53.586;9.692;2023-07-31T12:57:49;0.50;;;0.50;;
13991;SDS011;7070;53.586;9.692;2023-07-31T13:00:17;0.53;;;0.53;;
13991;SDS011;7070;53.586;9.692;2023-07-31T13:02:44;0.30;;;0.30;;
13991;SDS011;7070;53.586;9.692;2023-07-31T13:05:10;0.60;;;0.50;;
13991;SDS011;7070;53.586;9.692;2023-07-31T13:07:38;0.40;;;0.40;;
13991;SDS011;7070;53.586;9.692;2023-07-31T13:10:05;0.60;;;0.40;;
13991;SDS011;7070;53.586;9.692;2023-07-31T13:12:33;0.57;;;0.57;;
13991;SDS011;7070;53.586;9.692;2023-07-31T13:15:02;0.40;;;0.40;;
13991;SDS011;7070;53.586;9.692;2023-07-31T13:17:29;0.50;;;0.40;;
13991;SDS011;7070;53.586;9.692;2023-07-31T13:19:56;0.40;;;0.40;;
13991;SDS011;7070;53.586;9.692;2023-07-31T13:22:23;1.03;;;0.67;;
13991;SDS011;7070;53.586;9.692;2023-07-31T13:24:49;0.30;;;0.30;;
13991;SDS011;7070;53.586;9.692;2023-07-31T13:27:16;0.50;;;0.50;;
13991;SDS011;7070;53.586;9.692;2023-07-31T13:29:45;0.63;;;0.40;;
13991;SDS011;7070;53.586;9.692;2023-07-31T13:32:14;0.50;;;0.50;;
13991;SDS011;7070;53.586;9.692;2023-07-31T13:34:42;0.20;;;0.20;;
13991;SDS011;7070;53.586;9.692;2023-07-31T13:37:08;0.30;;;0.30;;
13991;SDS011;7070;53.586;9.692;2023-07-31T13:39:35;0.30;;;0.30;;
13991;SDS011;7070;53.586;9.692;2023-07-31T13:42:03;0.30;;;0.30;;
13991;SDS011;7070;53.586;9.692;2023-07-31T13:44:31;0.60;;;0.50;;
13991;SDS011;7070;53.586;9.692;2023-07-31T13:46:58;0.53;;;0.53;;
13991;SDS011;7070;53.586;9.692;2023-07-31T13:49:27;1.43;;;0.60;;
13991;SDS011;7070;53.586;9.692;2023-07-31T13:51:53;0.40;;;0.40;;
13991;SDS011;7070;53.586;9.692;2023-07-31T13:54:21;0.50;;;0.50;;
13991;SDS011;7070;53.586;9.692;2023-07-31T13:56:48;0.37;;;0.37;;
13991;SDS011;7070;53.586;9.692;2023-07-31T13:59:16;0.43;;;0.40;;
13991;SDS011;7070;53.586;9.692;2023-07-31T14:01:43;0.40;;;0.40;;
13991;SDS011;7070;53.586;9.692;2023-07-31T14:04:10;0.60;;;0.60;;
13991;SDS011;7070;53.586;9.692;2023-07-31T14:06:38;0.40;;;0.40;;
13991;SDS011;7070;53.586;9.692;2023-07-31T14:09:05;0.53;;;0.53;;
13991;SDS011;7070;53.586;9.692;2023-07-31T14:11:32;0.63;;;0.63;;
13991;SDS011;7070;53.586;9.692;2023-07-31T14:13:59;0.57;;;0.50;;
13991;SDS011;7070;53.586;9.692;2023-07-31T14:16:26;0.20;;;0.20;;
13991;SDS011;7070;53.586;9.692;2023-07-31T14:18:53;0.20;;;0.20;;
13991;SDS011;7070;53.586;9.692;2023-07-31T14:21:20;0.20;;;0.20;;
13991;SDS011;7070;53.586;9.692;2023-07-31T14:23:49;0.20;;;0.20;;
13991;SDS011;7070;53.586;9.692;2023-07-31T14:26:15;0.27;;;0.27;;
13991;SDS011;7070;53.586;9.692;2023-07-31T14:28:43;0.27;;;0.27;;
13991;SDS011;7070;53.586;9.692;2023-07-31T14:31:12;0.27;;;0.27;;
13991;SDS011;7070;53.586;9.692;2023-07-31T14:33:38;0.20;;;0.20;;
13991;SDS011;7070;53.586;9.692;2023-07-31T14:36:06;0.27;;;0.27;;
13991;SDS011;7070;53.586;9.692;2023-07-31T14:38:32;0.30;;;0.30;;
13991;SDS011;7070;53.586;9.692;2023-07-31T14:41:01;0.20;;;0.20;;
13991;SDS011;7070;53.586;9.692;2023-07-31T14:43:30;0.30;;;0.30;;
13991;SDS011;7070;53.586;9.692;2023-07-31T14:45:58;0.20;;;0.20;;
13991;SDS011;7070;53.586;9.692;2023-07-31T14:48:25;0.30;;;0.30;;
13991;SDS011;7070;53.586;9.692;2023-07-31T14:50:55;0.20;;;0.20;;
13991;SDS011;7070;53.586;9.692;2023-07-31T14:53:22;0.20;;;0.20;;
13991;SDS011;7070;53.586;9.692;2023-07-31T14:55:48;0.20;;;0.20;;
13991;SDS011;7070;53.586;9.692;2023-07-31T14:58:17;0.20;;;0.20;;
13991;SDS011;7070;53.586;9.692;2023-07-31T15:00:45;0.20;;;0.20;;
13991;SDS011;7070;53.586;9.692;2023-07-31T15:03:14;0.20;;;0.20;;
13991;SDS011;7070;53.586;9.692;2023-07-31T15:05:41;0.10;;;0.10;;